Mobile Regional Airport
KMOB : rendu visible

Aérodrome :











RETROUVEZ-NOUS SUR...

 
LOGIN :

S'inscrire | Disclaimer

   EN    FR    IT 

 









Légende :    VFR   VFR Marginal   IFR   IFR Intensif   IFR Très Intensif
Visi : 
Plafond : 
>= 8 km
>= 3000ft
5 à 8 km
1000 à 3000 ft
1500m à 5 km
500 à 1000 ft
800 à 1500m
200 à 500 ft
< 800m
< 200 ft
Symboles :   Orages  Brouillard  Fortes neiges  Fortes précipitations  Vent > 20 kt






- Altitude de l'aérodrome : 219 ft
- Code IATA : MOB


KMOB - Mobile Regional

DERNIER METAR :
  • 241456Z 14006KT 7SM BKN049 BKN060 OVC150 16/14 A2996 RMK AO2 SLP143 T01610144 58006

METARs EXPIRÉS :
  • 241356Z 00000KT 4SM BR FEW003 BKN043 OVC055 14/14 A2998 RMK AO2 SLP151 T01440139
  • 241332Z 00000KT 4SM BR SCT003 BKN043 OVC055 14/14 A2999 RMK AO2 T01440139
  • 241319Z 30003KT 4SM BR BKN003 OVC044 14/13 A2998 RMK AO2 T01390133

TAF KMOB
Valide du 24 à 14h jusqu'au 25 à 12h UTC


241333Z 2414/2512 17005KT P6SM VCSH OVC050 WS020/20035KT
TEMPO 2414/2415 4SM BR BKN003
FM241700 17009KT P6SM -SHRA OVC030
FM250300 19004KT 6SM BR OVC009 WS020/24035KT



MET'MAP, la Météo Aéronautique d'un coup d'oeil ! - Copyright ORBIFLY Décembre 2007 - Disclaimer

ORBIFLY MET'MAP TEAM :

Programmation & Développement : Alexandra Zaïnal
Sur une idée originale de : Baudouin d'Aumeries
Assistance à la programmation : Marc-Olivier Méhu
Soutien technique & logistique : Manuel Goepfert

Contact : metmap@orbifly.com




SOURCES & CREDITS :

   NOAA       Earth
Advisory